sensor_id;sensor_type;location;lat;lon;timestamp;P1;durP1;ratioP1;P2;durP2;ratioP2
21326;SDS011;10822;51.532;6.770;2023-05-10T00:00:08;9.50;;;7.00;;
21326;SDS011;10822;51.532;6.770;2023-05-10T00:02:34;10.32;;;7.68;;
21326;SDS011;10822;51.532;6.770;2023-05-10T00:05:01;10.57;;;7.47;;
21326;SDS011;10822;51.532;6.770;2023-05-10T00:07:27;12.05;;;7.50;;
21326;SDS011;10822;51.532;6.770;2023-05-10T00:09:53;8.77;;;6.75;;
21326;SDS011;10822;51.532;6.770;2023-05-10T00:12:19;9.70;;;6.70;;
21326;SDS011;10822;51.532;6.770;2023-05-10T00:14:45;8.73;;;6.53;;
21326;SDS011;10822;51.532;6.770;2023-05-10T00:17:11;9.95;;;7.15;;
21326;SDS011;10822;51.532;6.770;2023-05-10T00:19:37;10.70;;;7.35;;
21326;SDS011;10822;51.532;6.770;2023-05-10T00:22:03;10.57;;;7.18;;
21326;SDS011;10822;51.532;6.770;2023-05-10T00:24:29;10.82;;;7.70;;
21326;SDS011;10822;51.532;6.770;2023-05-10T00:26:55;11.68;;;8.40;;
21326;SDS011;10822;51.532;6.770;2023-05-10T00:29:21;12.95;;;8.98;;
21326;SDS011;10822;51.532;6.770;2023-05-10T00:31:47;13.30;;;8.60;;
21326;SDS011;10822;51.532;6.770;2023-05-10T00:34:12;12.07;;;8.88;;
21326;SDS011;10822;51.532;6.770;2023-05-10T00:36:38;13.65;;;8.93;;
21326;SDS011;10822;51.532;6.770;2023-05-10T00:39:04;12.73;;;9.70;;
21326;SDS011;10822;51.532;6.770;2023-05-10T00:41:31;13.20;;;9.45;;
21326;SDS011;10822;51.532;6.770;2023-05-10T00:43:57;13.02;;;9.20;;
21326;SDS011;10822;51.532;6.770;2023-05-10T00:46:23;12.10;;;9.05;;
21326;SDS011;10822;51.532;6.770;2023-05-10T00:48:50;12.55;;;9.32;;
21326;SDS011;10822;51.532;6.770;2023-05-10T00:51:16;13.88;;;9.90;;
21326;SDS011;10822;51.532;6.770;2023-05-10T00:53:42;12.18;;;8.98;;
21326;SDS011;10822;51.532;6.770;2023-05-10T00:56:09;12.40;;;9.25;;
21326;SDS011;10822;51.532;6.770;2023-05-10T00:58:35;13.13;;;9.32;;
21326;SDS011;10822;51.532;6.770;2023-05-10T01:01:01;14.32;;;9.55;;
21326;SDS011;10822;51.532;6.770;2023-05-10T01:03:27;13.65;;;9.32;;
21326;SDS011;10822;51.532;6.770;2023-05-10T01:05:53;13.15;;;9.70;;
21326;SDS011;10822;51.532;6.770;2023-05-10T01:08:20;14.77;;;9.25;;
21326;SDS011;10822;51.532;6.770;2023-05-10T01:10:46;12.60;;;9.57;;
21326;SDS011;10822;51.532;6.770;2023-05-10T01:13:14;13.30;;;9.68;;
21326;SDS011;10822;51.532;6.770;2023-05-10T01:15:43;14.50;;;9.98;;
21326;SDS011;10822;51.532;6.770;2023-05-10T01:18:09;15.70;;;11.13;;
21326;SDS011;10822;51.532;6.770;2023-05-10T01:20:39;14.48;;;9.65;;
21326;SDS011;10822;51.532;6.770;2023-05-10T01:25:35;16.67;;;11.68;;
21326;SDS011;10822;51.532;6.770;2023-05-10T01:33:18;16.35;;;10.98;;
21326;SDS011;10822;51.532;6.770;2023-05-10T01:38:29;15.77;;;11.10;;
21326;SDS011;10822;51.532;6.770;2023-05-10T01:41:02;15.57;;;10.45;;
21326;SDS011;10822;51.532;6.770;2023-05-10T01:43:33;15.35;;;10.25;;
21326;SDS011;10822;51.532;6.770;2023-05-10T01:46:04;14.98;;;10.70;;
21326;SDS011;10822;51.532;6.770;2023-05-10T01:48:35;13.73;;;9.70;;
21326;SDS011;10822;51.532;6.770;2023-05-10T01:51:02;14.45;;;9.95;;
21326;SDS011;10822;51.532;6.770;2023-05-10T01:53:29;13.70;;;9.85;;
21326;SDS011;10822;51.532;6.770;2023-05-10T01:55:57;15.02;;;10.20;;
21326;SDS011;10822;51.532;6.770;2023-05-10T01:58:28;14.18;;;9.48;;
21326;SDS011;10822;51.532;6.770;2023-05-10T02:00:55;14.30;;;10.05;;
21326;SDS011;10822;51.532;6.770;2023-05-10T02:03:23;13.57;;;9.25;;
21326;SDS011;10822;51.532;6.770;2023-05-10T02:05:49;14.77;;;10.15;;
21326;SDS011;10822;51.532;6.770;2023-05-10T02:08:16;16.73;;;11.20;;
21326;SDS011;10822;51.532;6.770;2023-05-10T02:10:43;15.30;;;10.50;;
21326;SDS011;10822;51.532;6.770;2023-05-10T02:13:10;15.80;;;10.35;;
21326;SDS011;10822;51.532;6.770;2023-05-10T02:15:36;15.02;;;10.52;;
21326;SDS011;10822;51.532;6.770;2023-05-10T02:18:03;16.73;;;11.00;;
21326;SDS011;10822;51.532;6.770;2023-05-10T02:20:30;15.57;;;10.20;;
21326;SDS011;10822;51.532;6.770;2023-05-10T02:22:57;17.02;;;10.82;;
21326;SDS011;10822;51.532;6.770;2023-05-10T02:25:23;15.55;;;10.27;;
21326;SDS011;10822;51.532;6.770;2023-05-10T02:27:49;15.15;;;10.55;;
21326;SDS011;10822;51.532;6.770;2023-05-10T02:30:16;15.20;;;10.48;;
21326;SDS011;10822;51.532;6.770;2023-05-10T02:32:43;15.75;;;10.88;;
21326;SDS011;10822;51.532;6.770;2023-05-10T02:35:10;15.82;;;11.10;;
21326;SDS011;10822;51.532;6.770;2023-05-10T02:37:36;18.55;;;11.32;;
21326;SDS011;10822;51.532;6.770;2023-05-10T02:40:03;15.52;;;11.20;;
21326;SDS011;10822;51.532;6.770;2023-05-10T02:42:31;18.25;;;11.85;;
21326;SDS011;10822;51.532;6.770;2023-05-10T02:45:01;17.85;;;11.57;;
21326;SDS011;10822;51.532;6.770;2023-05-10T02:47:28;15.75;;;11.52;;
21326;SDS011;10822;51.532;6.770;2023-05-10T02:49:54;17.38;;;11.55;;
21326;SDS011;10822;51.532;6.770;2023-05-10T02:52:28;20.30;;;12.82;;
21326;SDS011;10822;51.532;6.770;2023-05-10T02:54:56;19.27;;;12.18;;
21326;SDS011;10822;51.532;6.770;2023-05-10T02:57:32;15.75;;;11.63;;
21326;SDS011;10822;51.532;6.770;2023-05-10T02:59:59;18.60;;;12.30;;
21326;SDS011;10822;51.532;6.770;2023-05-10T03:02:25;19.10;;;12.93;;
21326;SDS011;10822;51.532;6.770;2023-05-10T03:04:51;18.13;;;12.43;;
21326;SDS011;10822;51.532;6.770;2023-05-10T03:07:17;17.38;;;11.65;;
21326;SDS011;10822;51.532;6.770;2023-05-10T03:09:46;17.42;;;12.15;;
21326;SDS011;10822;51.532;6.770;2023-05-10T03:12:27;16.80;;;11.27;;
21326;SDS011;10822;51.532;6.770;2023-05-10T03:15:00;17.63;;;12.48;;
21326;SDS011;10822;51.532;6.770;2023-05-10T03:18:15;19.13;;;12.80;;
21326;SDS011;10822;51.532;6.770;2023-05-10T03:20:18;17.02;;;11.90;;
21326;SDS011;10822;51.532;6.770;2023-05-10T03:22:47;19.13;;;12.40;;
21326;SDS011;10822;51.532;6.770;2023-05-10T03:25:15;18.25;;;12.07;;
21326;SDS011;10822;51.532;6.770;2023-05-10T03:27:42;16.98;;;11.40;;
21326;SDS011;10822;51.532;6.770;2023-05-10T03:30:10;18.80;;;12.57;;
21326;SDS011;10822;51.532;6.770;2023-05-10T03:32:36;18.75;;;12.18;;
21326;SDS011;10822;51.532;6.770;2023-05-10T03:35:06;18.55;;;12.82;;
21326;SDS011;10822;51.532;6.770;2023-05-10T03:37:32;19.60;;;12.70;;
21326;SDS011;10822;51.532;6.770;2023-05-10T03:39:58;20.45;;;12.68;;
21326;SDS011;10822;51.532;6.770;2023-05-10T03:42:24;23.05;;;13.20;;
21326;SDS011;10822;51.532;6.770;2023-05-10T03:44:50;18.92;;;12.43;;
21326;SDS011;10822;51.532;6.770;2023-05-10T03:47:16;25.50;;;14.98;;
21326;SDS011;10822;51.532;6.770;2023-05-10T03:49:42;22.73;;;13.65;;
21326;SDS011;10822;51.532;6.770;2023-05-10T03:52:08;19.85;;;13.43;;
21326;SDS011;10822;51.532;6.770;2023-05-10T03:54:34;22.52;;;13.98;;
21326;SDS011;10822;51.532;6.770;2023-05-10T03:57:00;23.45;;;13.65;;
21326;SDS011;10822;51.532;6.770;2023-05-10T03:59:27;21.48;;;13.13;;
21326;SDS011;10822;51.532;6.770;2023-05-10T04:01:53;21.67;;;13.30;;
21326;SDS011;10822;51.532;6.770;2023-05-10T04:04:19;23.95;;;14.25;;
21326;SDS011;10822;51.532;6.770;2023-05-10T04:06:46;24.30;;;14.50;;
21326;SDS011;10822;51.532;6.770;2023-05-10T04:09:12;20.35;;;13.20;;
21326;SDS011;10822;51.532;6.770;2023-05-10T04:11:38;22.00;;;13.65;;
21326;SDS011;10822;51.532;6.770;2023-05-10T04:14:04;20.67;;;13.43;;
21326;SDS011;10822;51.532;6.770;2023-05-10T04:16:30;22.10;;;13.48;;
21326;SDS011;10822;51.532;6.770;2023-05-10T04:18:56;24.35;;;15.05;;
21326;SDS011;10822;51.532;6.770;2023-05-10T04:21:22;26.92;;;14.65;;
21326;SDS011;10822;51.532;6.770;2023-05-10T04:23:48;25.65;;;14.50;;
21326;SDS011;10822;51.532;6.770;2023-05-10T04:26:14;28.90;;;15.82;;
21326;SDS011;10822;51.532;6.770;2023-05-10T04:28:40;25.90;;;15.07;;
21326;SDS011;10822;51.532;6.770;2023-05-10T04:31:07;28.70;;;16.50;;
21326;SDS011;10822;51.532;6.770;2023-05-10T04:33:34;25.33;;;15.20;;
21326;SDS011;10822;51.532;6.770;2023-05-10T04:36:00;27.92;;;16.95;;
21326;SDS011;10822;51.532;6.770;2023-05-10T04:38:26;27.55;;;16.35;;
21326;SDS011;10822;51.532;6.770;2023-05-10T04:40:52;26.35;;;15.43;;
21326;SDS011;10822;51.532;6.770;2023-05-10T04:43:18;25.73;;;15.85;;
21326;SDS011;10822;51.532;6.770;2023-05-10T04:45:45;29.63;;;17.17;;
21326;SDS011;10822;51.532;6.770;2023-05-10T04:48:11;26.35;;;15.20;;
21326;SDS011;10822;51.532;6.770;2023-05-10T04:50:37;30.85;;;17.70;;
21326;SDS011;10822;51.532;6.770;2023-05-10T04:53:03;30.67;;;17.83;;
21326;SDS011;10822;51.532;6.770;2023-05-10T04:55:29;28.88;;;16.75;;
21326;SDS011;10822;51.532;6.770;2023-05-10T04:57:55;29.95;;;18.52;;
21326;SDS011;10822;51.532;6.770;2023-05-10T05:00:22;29.10;;;17.15;;
21326;SDS011;10822;51.532;6.770;2023-05-10T05:02:48;29.95;;;17.63;;
21326;SDS011;10822;51.532;6.770;2023-05-10T05:05:14;27.30;;;17.38;;
21326;SDS011;10822;51.532;6.770;2023-05-10T05:07:40;28.88;;;17.83;;
21326;SDS011;10822;51.532;6.770;2023-05-10T05:10:09;29.33;;;17.58;;
21326;SDS011;10822;51.532;6.770;2023-05-10T05:12:35;29.75;;;17.33;;
21326;SDS011;10822;51.532;6.770;2023-05-10T05:15:01;30.25;;;18.02;;
21326;SDS011;10822;51.532;6.770;2023-05-10T05:17:29;33.70;;;18.45;;
21326;SDS011;10822;51.532;6.770;2023-05-10T05:19:56;33.60;;;19.88;;
21326;SDS011;10822;51.532;6.770;2023-05-10T05:22:22;31.77;;;18.70;;
21326;SDS011;10822;51.532;6.770;2023-05-10T05:24:52;33.33;;;19.35;;
21326;SDS011;10822;51.532;6.770;2023-05-10T05:27:18;31.13;;;18.45;;
21326;SDS011;10822;51.532;6.770;2023-05-10T05:29:45;33.17;;;19.30;;
21326;SDS011;10822;51.532;6.770;2023-05-10T05:32:11;32.22;;;19.33;;
21326;SDS011;10822;51.532;6.770;2023-05-10T05:34:37;34.50;;;20.73;;
21326;SDS011;10822;51.532;6.770;2023-05-10T05:37:04;38.28;;;21.38;;
21326;SDS011;10822;51.532;6.770;2023-05-10T05:39:29;30.75;;;19.08;;
21326;SDS011;10822;51.532;6.770;2023-05-10T05:41:56;33.25;;;20.67;;
21326;SDS011;10822;51.532;6.770;2023-05-10T05:44:22;33.83;;;21.95;;
21326;SDS011;10822;51.532;6.770;2023-05-10T05:46:48;33.88;;;20.35;;
21326;SDS011;10822;51.532;6.770;2023-05-10T05:49:14;32.05;;;20.77;;
21326;SDS011;10822;51.532;6.770;2023-05-10T05:51:40;32.72;;;20.77;;
21326;SDS011;10822;51.532;6.770;2023-05-10T05:54:06;35.58;;;21.13;;
21326;SDS011;10822;51.532;6.770;2023-05-10T05:56:32;36.60;;;21.13;;
21326;SDS011;10822;51.532;6.770;2023-05-10T05:58:58;38.13;;;22.08;;
21326;SDS011;10822;51.532;6.770;2023-05-10T06:01:24;36.17;;;20.73;;
21326;SDS011;10822;51.532;6.770;2023-05-10T06:03:50;32.78;;;19.17;;
21326;SDS011;10822;51.532;6.770;2023-05-10T06:06:16;36.33;;;21.42;;
21326;SDS011;10822;51.532;6.770;2023-05-10T06:08:42;37.75;;;21.55;;
21326;SDS011;10822;51.532;6.770;2023-05-10T06:11:08;36.78;;;21.42;;
21326;SDS011;10822;51.532;6.770;2023-05-10T06:13:34;33.35;;;20.55;;
21326;SDS011;10822;51.532;6.770;2023-05-10T06:16:00;37.00;;;20.00;;
21326;SDS011;10822;51.532;6.770;2023-05-10T06:18:26;38.10;;;21.45;;
21326;SDS011;10822;51.532;6.770;2023-05-10T06:20:52;37.30;;;21.98;;
21326;SDS011;10822;51.532;6.770;2023-05-10T06:23:18;37.78;;;22.98;;
21326;SDS011;10822;51.532;6.770;2023-05-10T06:25:44;37.67;;;21.38;;
21326;SDS011;10822;51.532;6.770;2023-05-10T06:28:10;34.47;;;20.65;;
21326;SDS011;10822;51.532;6.770;2023-05-10T06:30:36;35.75;;;21.88;;
21326;SDS011;10822;51.532;6.770;2023-05-10T06:33:02;36.13;;;22.48;;
21326;SDS011;10822;51.532;6.770;2023-05-10T06:35:28;36.67;;;22.00;;
21326;SDS011;10822;51.532;6.770;2023-05-10T06:37:54;36.05;;;22.35;;
21326;SDS011;10822;51.532;6.770;2023-05-10T06:40:20;34.55;;;20.92;;
21326;SDS011;10822;51.532;6.770;2023-05-10T06:42:47;37.42;;;22.35;;
21326;SDS011;10822;51.532;6.770;2023-05-10T06:45:13;40.13;;;21.90;;
21326;SDS011;10822;51.532;6.770;2023-05-10T06:47:39;41.35;;;24.40;;
21326;SDS011;10822;51.532;6.770;2023-05-10T06:50:07;41.78;;;23.83;;
21326;SDS011;10822;51.532;6.770;2023-05-10T06:52:33;36.42;;;22.38;;
21326;SDS011;10822;51.532;6.770;2023-05-10T06:54:59;41.92;;;23.50;;
21326;SDS011;10822;51.532;6.770;2023-05-10T06:57:25;38.58;;;23.70;;
21326;SDS011;10822;51.532;6.770;2023-05-10T06:59:51;39.08;;;22.92;;
21326;SDS011;10822;51.532;6.770;2023-05-10T07:02:17;40.28;;;22.60;;
21326;SDS011;10822;51.532;6.770;2023-05-10T07:04:43;41.10;;;22.95;;
21326;SDS011;10822;51.532;6.770;2023-05-10T07:07:09;35.15;;;21.65;;
21326;SDS011;10822;51.532;6.770;2023-05-10T07:09:36;42.17;;;23.10;;
21326;SDS011;10822;51.532;6.770;2023-05-10T07:12:01;35.05;;;20.38;;
21326;SDS011;10822;51.532;6.770;2023-05-10T07:14:27;40.40;;;23.05;;
21326;SDS011;10822;51.532;6.770;2023-05-10T07:16:53;42.92;;;22.70;;
21326;SDS011;10822;51.532;6.770;2023-05-10T07:19:20;37.50;;;22.67;;
21326;SDS011;10822;51.532;6.770;2023-05-10T07:21:46;41.95;;;22.92;;
21326;SDS011;10822;51.532;6.770;2023-05-10T07:24:12;46.85;;;24.02;;
21326;SDS011;10822;51.532;6.770;2023-05-10T07:26:38;37.95;;;21.92;;
21326;SDS011;10822;51.532;6.770;2023-05-10T07:29:04;46.72;;;23.45;;
21326;SDS011;10822;51.532;6.770;2023-05-10T07:31:30;47.20;;;23.42;;
21326;SDS011;10822;51.532;6.770;2023-05-10T07:33:56;42.72;;;23.00;;
21326;SDS011;10822;51.532;6.770;2023-05-10T07:36:22;40.20;;;22.83;;
21326;SDS011;10822;51.532;6.770;2023-05-10T07:38:49;42.70;;;21.75;;
21326;SDS011;10822;51.532;6.770;2023-05-10T07:41:15;41.08;;;22.27;;
21326;SDS011;10822;51.532;6.770;2023-05-10T07:43:41;38.40;;;21.73;;
21326;SDS011;10822;51.532;6.770;2023-05-10T07:46:07;35.67;;;20.38;;
21326;SDS011;10822;51.532;6.770;2023-05-10T07:48:36;31.80;;;18.00;;
21326;SDS011;10822;51.532;6.770;2023-05-10T07:51:02;33.80;;;18.45;;
21326;SDS011;10822;51.532;6.770;2023-05-10T07:53:28;34.45;;;17.95;;
21326;SDS011;10822;51.532;6.770;2023-05-10T07:55:55;37.03;;;19.02;;
21326;SDS011;10822;51.532;6.770;2023-05-10T07:58:25;33.35;;;18.17;;
21326;SDS011;10822;51.532;6.770;2023-05-10T08:00:51;35.25;;;18.63;;
21326;SDS011;10822;51.532;6.770;2023-05-10T08:03:17;35.35;;;18.65;;
21326;SDS011;10822;51.532;6.770;2023-05-10T08:05:43;33.60;;;18.52;;
21326;SDS011;10822;51.532;6.770;2023-05-10T08:08:09;37.25;;;20.20;;
21326;SDS011;10822;51.532;6.770;2023-05-10T08:10:35;34.10;;;18.08;;
21326;SDS011;10822;51.532;6.770;2023-05-10T08:13:01;33.97;;;18.55;;
21326;SDS011;10822;51.532;6.770;2023-05-10T08:15:27;36.30;;;19.30;;
21326;SDS011;10822;51.532;6.770;2023-05-10T08:17:53;34.60;;;18.63;;
21326;SDS011;10822;51.532;6.770;2023-05-10T08:20:19;33.92;;;17.77;;
21326;SDS011;10822;51.532;6.770;2023-05-10T08:22:45;34.30;;;19.63;;
21326;SDS011;10822;51.532;6.770;2023-05-10T08:25:11;33.95;;;19.50;;
21326;SDS011;10822;51.532;6.770;2023-05-10T08:27:37;35.13;;;20.02;;
21326;SDS011;10822;51.532;6.770;2023-05-10T08:30:03;34.80;;;18.45;;
21326;SDS011;10822;51.532;6.770;2023-05-10T08:32:30;31.35;;;18.55;;
21326;SDS011;10822;51.532;6.770;2023-05-10T08:34:55;27.48;;;14.95;;
21326;SDS011;10822;51.532;6.770;2023-05-10T08:37:22;22.42;;;13.18;;
21326;SDS011;10822;51.532;6.770;2023-05-10T08:39:49;24.35;;;13.48;;
21326;SDS011;10822;51.532;6.770;2023-05-10T08:42:16;24.92;;;15.18;;
21326;SDS011;10822;51.532;6.770;2023-05-10T08:44:45;23.25;;;14.73;;
21326;SDS011;10822;51.532;6.770;2023-05-10T08:47:15;28.48;;;16.92;;
21326;SDS011;10822;51.532;6.770;2023-05-10T08:49:42;25.88;;;15.45;;
21326;SDS011;10822;51.532;6.770;2023-05-10T08:52:09;26.10;;;14.90;;
21326;SDS011;10822;51.532;6.770;2023-05-10T08:54:36;25.77;;;14.88;;
21326;SDS011;10822;51.532;6.770;2023-05-10T08:57:02;24.05;;;14.75;;
21326;SDS011;10822;51.532;6.770;2023-05-10T08:59:28;25.40;;;15.55;;
21326;SDS011;10822;51.532;6.770;2023-05-10T09:01:55;27.75;;;14.85;;
21326;SDS011;10822;51.532;6.770;2023-05-10T09:04:21;22.02;;;14.32;;
21326;SDS011;10822;51.532;6.770;2023-05-10T09:06:48;23.42;;;14.65;;
21326;SDS011;10822;51.532;6.770;2023-05-10T09:09:14;21.45;;;14.57;;
21326;SDS011;10822;51.532;6.770;2023-05-10T09:11:41;23.17;;;14.27;;
21326;SDS011;10822;51.532;6.770;2023-05-10T09:14:07;22.35;;;14.30;;
21326;SDS011;10822;51.532;6.770;2023-05-10T09:16:37;23.90;;;14.32;;
21326;SDS011;10822;51.532;6.770;2023-05-10T09:19:03;21.85;;;13.60;;
21326;SDS011;10822;51.532;6.770;2023-05-10T09:21:29;23.02;;;14.38;;
21326;SDS011;10822;51.532;6.770;2023-05-10T09:23:56;24.23;;;14.85;;
21326;SDS011;10822;51.532;6.770;2023-05-10T09:26:23;23.63;;;14.98;;
21326;SDS011;10822;51.532;6.770;2023-05-10T09:28:52;23.80;;;14.23;;
21326;SDS011;10822;51.532;6.770;2023-05-10T09:31:19;23.42;;;14.55;;
21326;SDS011;10822;51.532;6.770;2023-05-10T09:33:45;22.13;;;13.90;;
21326;SDS011;10822;51.532;6.770;2023-05-10T09:36:12;20.30;;;13.05;;
21326;SDS011;10822;51.532;6.770;2023-05-10T09:38:50;24.92;;;14.05;;
21326;SDS011;10822;51.532;6.770;2023-05-10T09:41:19;21.15;;;13.20;;
21326;SDS011;10822;51.532;6.770;2023-05-10T09:43:45;19.05;;;12.13;;
21326;SDS011;10822;51.532;6.770;2023-05-10T09:46:11;20.75;;;13.30;;
21326;SDS011;10822;51.532;6.770;2023-05-10T09:48:44;21.55;;;12.38;;
21326;SDS011;10822;51.532;6.770;2023-05-10T09:51:10;20.95;;;12.27;;
21326;SDS011;10822;51.532;6.770;2023-05-10T09:53:44;20.48;;;12.48;;
21326;SDS011;10822;51.532;6.770;2023-05-10T09:56:10;19.05;;;11.60;;
21326;SDS011;10822;51.532;6.770;2023-05-10T09:58:36;19.45;;;12.18;;
21326;SDS011;10822;51.532;6.770;2023-05-10T10:01:03;23.55;;;13.10;;
21326;SDS011;10822;51.532;6.770;2023-05-10T10:03:29;21.90;;;13.27;;
21326;SDS011;10822;51.532;6.770;2023-05-10T10:05:56;20.25;;;13.13;;
21326;SDS011;10822;51.532;6.770;2023-05-10T10:08:22;19.80;;;12.90;;
21326;SDS011;10822;51.532;6.770;2023-05-10T10:10:48;20.10;;;13.07;;
21326;SDS011;10822;51.532;6.770;2023-05-10T10:13:14;20.00;;;12.48;;
21326;SDS011;10822;51.532;6.770;2023-05-10T10:15:42;21.15;;;13.55;;
21326;SDS011;10822;51.532;6.770;2023-05-10T10:18:12;20.52;;;12.25;;
21326;SDS011;10822;51.532;6.770;2023-05-10T10:20:39;18.15;;;11.60;;
21326;SDS011;10822;51.532;6.770;2023-05-10T10:23:05;20.15;;;12.02;;
21326;SDS011;10822;51.532;6.770;2023-05-10T10:25:31;19.55;;;12.13;;
21326;SDS011;10822;51.532;6.770;2023-05-10T10:28:09;19.00;;;12.18;;
21326;SDS011;10822;51.532;6.770;2023-05-10T10:30:44;22.58;;;13.02;;
21326;SDS011;10822;51.532;6.770;2023-05-10T10:35:49;19.65;;;12.43;;
21326;SDS011;10822;51.532;6.770;2023-05-10T10:38:16;19.30;;;11.82;;
21326;SDS011;10822;51.532;6.770;2023-05-10T10:40:42;19.02;;;12.82;;
21326;SDS011;10822;51.532;6.770;2023-05-10T10:43:24;21.73;;;12.90;;
21326;SDS011;10822;51.532;6.770;2023-05-10T10:48:47;17.90;;;12.30;;
21326;SDS011;10822;51.532;6.770;2023-05-10T10:51:14;18.65;;;11.98;;
21326;SDS011;10822;51.532;6.770;2023-05-10T10:53:40;17.58;;;11.93;;
21326;SDS011;10822;51.532;6.770;2023-05-10T10:56:10;18.95;;;11.85;;
21326;SDS011;10822;51.532;6.770;2023-05-10T10:58:37;20.02;;;13.30;;
21326;SDS011;10822;51.532;6.770;2023-05-10T11:01:24;19.05;;;13.02;;
21326;SDS011;10822;51.532;6.770;2023-05-10T11:06:31;21.38;;;12.20;;
21326;SDS011;10822;51.532;6.770;2023-05-10T11:08:57;14.00;;;9.82;;
21326;SDS011;10822;51.532;6.770;2023-05-10T11:11:23;16.15;;;10.00;;
21326;SDS011;10822;51.532;6.770;2023-05-10T11:13:50;18.55;;;11.57;;
21326;SDS011;10822;51.532;6.770;2023-05-10T11:16:18;18.25;;;11.77;;
21326;SDS011;10822;51.532;6.770;2023-05-10T11:21:19;19.10;;;12.80;;
21326;SDS011;10822;51.532;6.770;2023-05-10T11:23:55;20.05;;;13.32;;
21326;SDS011;10822;51.532;6.770;2023-05-10T11:26:22;21.83;;;13.15;;
21326;SDS011;10822;51.532;6.770;2023-05-10T11:28:51;18.10;;;12.88;;
21326;SDS011;10822;51.532;6.770;2023-05-10T11:31:17;22.33;;;14.50;;
21326;SDS011;10822;51.532;6.770;2023-05-10T11:33:48;25.73;;;14.52;;
21326;SDS011;10822;51.532;6.770;2023-05-10T11:36:14;21.77;;;13.23;;
21326;SDS011;10822;51.532;6.770;2023-05-10T11:38:41;20.98;;;12.73;;
21326;SDS011;10822;51.532;6.770;2023-05-10T11:41:10;20.27;;;14.02;;
21326;SDS011;10822;51.532;6.770;2023-05-10T11:43:38;22.77;;;13.70;;
21326;SDS011;10822;51.532;6.770;2023-05-10T11:46:04;20.33;;;13.52;;
21326;SDS011;10822;51.532;6.770;2023-05-10T11:48:31;16.67;;;12.45;;
21326;SDS011;10822;51.532;6.770;2023-05-10T11:50:57;19.13;;;12.38;;
21326;SDS011;10822;51.532;6.770;2023-05-10T11:53:25;16.20;;;11.80;;
21326;SDS011;10822;51.532;6.770;2023-05-10T11:55:52;15.35;;;11.00;;
21326;SDS011;10822;51.532;6.770;2023-05-10T11:58:18;14.85;;;10.88;;
21326;SDS011;10822;51.532;6.770;2023-05-10T12:00:46;14.10;;;10.57;;
21326;SDS011;10822;51.532;6.770;2023-05-10T12:03:12;13.25;;;9.35;;
21326;SDS011;10822;51.532;6.770;2023-05-10T12:05:38;13.13;;;9.80;;
21326;SDS011;10822;51.532;6.770;2023-05-10T12:08:13;13.55;;;9.60;;
21326;SDS011;10822;51.532;6.770;2023-05-10T12:10:39;12.32;;;8.85;;
21326;SDS011;10822;51.532;6.770;2023-05-10T12:13:10;12.20;;;8.93;;
21326;SDS011;10822;51.532;6.770;2023-05-10T12:15:36;12.63;;;8.88;;
21326;SDS011;10822;51.532;6.770;2023-05-10T12:18:02;12.52;;;8.75;;
21326;SDS011;10822;51.532;6.770;2023-05-10T12:20:30;12.93;;;8.57;;
21326;SDS011;10822;51.532;6.770;2023-05-10T12:22:57;10.50;;;8.23;;
21326;SDS011;10822;51.532;6.770;2023-05-10T12:25:24;11.60;;;6.97;;
21326;SDS011;10822;51.532;6.770;2023-05-10T12:27:55;9.63;;;6.43;;
21326;SDS011;10822;51.532;6.770;2023-05-10T12:30:22;10.48;;;5.82;;
21326;SDS011;10822;51.532;6.770;2023-05-10T12:32:48;10.95;;;5.78;;
21326;SDS011;10822;51.532;6.770;2023-05-10T12:35:14;8.80;;;5.63;;
21326;SDS011;10822;51.532;6.770;2023-05-10T12:37:42;8.25;;;5.25;;
21326;SDS011;10822;51.532;6.770;2023-05-10T12:40:08;8.40;;;5.68;;
21326;SDS011;10822;51.532;6.770;2023-05-10T12:42:36;8.75;;;5.45;;
21326;SDS011;10822;51.532;6.770;2023-05-10T12:45:02;6.65;;;5.20;;
21326;SDS011;10822;51.532;6.770;2023-05-10T12:47:28;8.10;;;5.75;;
21326;SDS011;10822;51.532;6.770;2023-05-10T12:49:55;10.57;;;5.97;;
21326;SDS011;10822;51.532;6.770;2023-05-10T12:52:21;7.28;;;5.47;;
21326;SDS011;10822;51.532;6.770;2023-05-10T12:54:46;6.68;;;5.38;;
21326;SDS011;10822;51.532;6.770;2023-05-10T12:57:13;7.25;;;4.60;;
21326;SDS011;10822;51.532;6.770;2023-05-10T12:59:39;8.30;;;4.63;;
21326;SDS011;10822;51.532;6.770;2023-05-10T13:02:05;8.43;;;5.63;;
21326;SDS011;10822;51.532;6.770;2023-05-10T13:04:31;8.98;;;5.53;;
21326;SDS011;10822;51.532;6.770;2023-05-10T13:06:57;6.43;;;5.15;;
21326;SDS011;10822;51.532;6.770;2023-05-10T13:09:24;7.18;;;5.15;;
21326;SDS011;10822;51.532;6.770;2023-05-10T13:11:51;7.65;;;4.90;;
21326;SDS011;10822;51.532;6.770;2023-05-10T13:14:19;7.75;;;5.07;;
21326;SDS011;10822;51.532;6.770;2023-05-10T13:16:47;7.97;;;5.57;;
21326;SDS011;10822;51.532;6.770;2023-05-10T13:19:13;6.43;;;4.60;;
21326;SDS011;10822;51.532;6.770;2023-05-10T13:21:39;7.45;;;5.38;;
21326;SDS011;10822;51.532;6.770;2023-05-10T13:24:06;7.80;;;5.63;;
21326;SDS011;10822;51.532;6.770;2023-05-10T13:26:32;8.15;;;5.75;;
21326;SDS011;10822;51.532;6.770;2023-05-10T13:28:58;7.25;;;5.63;;
21326;SDS011;10822;51.532;6.770;2023-05-10T13:31:24;8.00;;;5.35;;
21326;SDS011;10822;51.532;6.770;2023-05-10T13:33:50;7.80;;;5.07;;
21326;SDS011;10822;51.532;6.770;2023-05-10T13:36:16;7.18;;;5.50;;
21326;SDS011;10822;51.532;6.770;2023-05-10T13:38:42;6.10;;;5.00;;
21326;SDS011;10822;51.532;6.770;2023-05-10T13:41:08;6.63;;;5.30;;
21326;SDS011;10822;51.532;6.770;2023-05-10T13:43:34;5.95;;;4.82;;
21326;SDS011;10822;51.532;6.770;2023-05-10T13:46:01;5.43;;;3.97;;
21326;SDS011;10822;51.532;6.770;2023-05-10T13:48:27;5.55;;;4.22;;
21326;SDS011;10822;51.532;6.770;2023-05-10T13:50:53;7.28;;;4.38;;
21326;SDS011;10822;51.532;6.770;2023-05-10T13:53:20;4.65;;;3.60;;
21326;SDS011;10822;51.532;6.770;2023-05-10T13:55:46;7.35;;;4.40;;
21326;SDS011;10822;51.532;6.770;2023-05-10T13:58:12;6.28;;;4.70;;
21326;SDS011;10822;51.532;6.770;2023-05-10T14:00:38;8.30;;;4.72;;
21326;SDS011;10822;51.532;6.770;2023-05-10T14:03:04;4.93;;;4.15;;
21326;SDS011;10822;51.532;6.770;2023-05-10T14:05:31;5.82;;;4.35;;
21326;SDS011;10822;51.532;6.770;2023-05-10T14:07:57;5.72;;;3.95;;
21326;SDS011;10822;51.532;6.770;2023-05-10T14:10:23;7.80;;;5.57;;
21326;SDS011;10822;51.532;6.770;2023-05-10T14:12:49;7.15;;;5.18;;
21326;SDS011;10822;51.532;6.770;2023-05-10T14:15:15;8.13;;;4.93;;
21326;SDS011;10822;51.532;6.770;2023-05-10T14:17:41;5.68;;;4.50;;
21326;SDS011;10822;51.532;6.770;2023-05-10T14:20:07;6.30;;;4.22;;
21326;SDS011;10822;51.532;6.770;2023-05-10T14:22:34;3.90;;;3.50;;
21326;SDS011;10822;51.532;6.770;2023-05-10T14:25:00;8.30;;;4.70;;
21326;SDS011;10822;51.532;6.770;2023-05-10T14:27:26;6.57;;;4.72;;
21326;SDS011;10822;51.532;6.770;2023-05-10T14:29:52;4.72;;;4.22;;
21326;SDS011;10822;51.532;6.770;2023-05-10T14:32:20;7.03;;;4.18;;
21326;SDS011;10822;51.532;6.770;2023-05-10T14:34:46;6.82;;;4.38;;
21326;SDS011;10822;51.532;6.770;2023-05-10T14:37:12;10.23;;;4.60;;
21326;SDS011;10822;51.532;6.770;2023-05-10T14:39:40;9.05;;;5.07;;
21326;SDS011;10822;51.532;6.770;2023-05-10T14:42:08;8.68;;;5.40;;
21326;SDS011;10822;51.532;6.770;2023-05-10T14:44:35;6.57;;;5.15;;
21326;SDS011;10822;51.532;6.770;2023-05-10T14:47:02;6.00;;;5.07;;